• Join FlightAware (Why Join?)
  • Login
  • US Flag 
09:07PM EDT


 

Airport Tracker/Info


-or-


 

Live Flight TrackerFlight Track Log ✈ CTL312 ✈ 01-May-2013 ✈ KBKL - KPTK

Flight Track Log - Related Links

Times and Time Zones

All times are in EDT time to prevent confusion due to time zone crossing. See the CTL312 flight status page for this flight to view local times or setup timezone preferences in your user account.

Time Position Orientation Groundspeed Altitude Reporting Facility
EDT Latitude Longitude Course Direction KTS MPH feet Rate Location/Type
09:53PM 41.5275 -81.6758 336° Northwest 132 152 1,000  Level Cleveland Center
09:53PM 41.5419 -81.6844 336° Northwest 149 171 1,400 840 Climbing Cleveland Center
09:54PM 41.5833 -81.7075 337° Northwest 168 193 2,200 780 Climbing Cleveland Center
09:55PM 41.6228 -81.7303 337° Northwest 175 201 2,900 660 Climbing Cleveland Center
09:56PM 41.6431 -81.7836 297° West 177 204 3,500 540 Climbing Cleveland Center
09:57PM 41.6592 -81.8478 289° West 174 200 4,100 540 Climbing Cleveland Center
09:58PM 41.6750 -81.9092 289° West 175 201 4,700 540 Climbing Cleveland Center
09:59PM 41.6908 -81.9736 288° West 181 208 5,200 420 Climbing Cleveland Center
10:00PM 41.7089 -82.0378 291° West 182 209 5,600 420 Climbing Cleveland Center
10:01PM 41.7247 -82.1050 288° West 186 214 6,100 240 Climbing Cleveland Center
10:02PM 41.7383 -82.1747 285° West 192 221 6,100 -60 Level Cleveland Center
10:03PM 41.7519 -82.2419 285° West 190 219 6,000 -60 Descending Cleveland Center
10:04PM 41.7656 -82.3036 287° West 190 219 6,000  Level Cleveland Center
10:05PM 41.7833 -82.3736 289° West 188 216 6,000  Level Cleveland Center
10:06PM 41.7972 -82.4158 294° West 189 217 6,100  Climbing Cleveland Center
10:07PM 41.8169 -82.4917 289° West 189 217 6,000 -60 Descending Cleveland Center
10:08PM 41.8283 -82.5617 282° West 191 220 6,000  Level Cleveland Center
10:09PM 41.8456 -82.6375 287° West 190 219 6,100  Climbing Cleveland Center
10:10PM 41.8864 -82.6861 318° Northwest 188 216 6,000 -60 Descending Cleveland Center
10:11PM 41.9297 -82.7211 329° Northwest 188 216 6,000  Level Cleveland Center
10:12PM 41.9686 -82.7586 324° Northwest 187 215 6,100  Climbing Cleveland Center
10:13PM 42.0114 -82.7992 325° Northwest 186 214 6,100  Level Cleveland Center
10:14PM 42.0525 -82.8342 328° Northwest 186 214 6,100 -60 Level Cleveland Center
10:15PM 42.1036 -82.8808 326° Northwest 188 216 6,000 -180 Descending Cleveland Center
10:16PM 42.1467 -82.9217 325° Northwest 186 214 5,800 -360 Descending Cleveland Center
10:17PM 42.1939 -82.9625 327° Northwest 202 232 5,300 -600 Descending Cleveland Center
10:18PM 42.2450 -83.0039 329° Northwest 205 236 4,600 -660 Descending Cleveland Center
10:19PM 42.2942 -83.0478 327° Northwest 197 227 4,000 -300 Descending Cleveland Center
10:20PM 42.3369 -83.0861 326° Northwest 177 204 4,100  Climbing Cleveland Center
10:21PM 42.3778 -83.1242 325° Northwest 181 208 4,100  Level Cleveland Center
10:22PM 42.4208 -83.1625 327° Northwest 179 206 4,100 -60 Level Cleveland Center
10:23PM 42.4617 -83.2064 322° Northwest 181 208 4,000 -360 Descending Cleveland Center
10:24PM 42.5044 -83.2447 327° Northwest 186 214 3,400 -540 Descending Cleveland Center
10:25PM 42.5369 -83.2800 321° Northwest 182 209 3,000 -540 Descending Cleveland Center
10:26PM 42.5756 -83.3239 320° Northwest 186 214 2,500 -540 Descending Cleveland Center
10:27PM 42.6097 -83.3706 315° West 181 208 2,000 -300 Descending Cleveland Center
10:28PM 42.6333 -83.4281 299° West 151 174 1,900 -120 Descending Cleveland Center